createdAt,value
2019-02-11T00:00:31.162Z,93857.49
2019-02-11T00:03:38.338Z,93865.97
2019-02-11T00:06:45.766Z,93860.34
2019-02-11T00:09:53.267Z,93857.63
2019-02-11T00:13:00.491Z,93880.16
2019-02-11T00:16:07.875Z,93881.27
2019-02-11T00:19:15.333Z,93897.63
2019-02-11T00:22:22.593Z,93918.62
2019-02-11T00:25:30.036Z,93900.84
2019-02-11T00:28:37.196Z,93901.95
2019-02-11T00:31:44.646Z,93898.09
2019-02-11T00:34:51.766Z,93903.94
2019-02-11T00:37:58.940Z,93902.32
2019-02-11T00:41:06.439Z,93889.98
2019-02-11T00:44:13.923Z,93898.78
2019-02-11T00:47:21.468Z,93910.73
2019-02-11T00:50:28.743Z,93908.94
2019-02-11T00:53:36.153Z,93920.62
2019-02-11T00:56:43.649Z,93919.52
2019-02-11T00:59:50.922Z,93913.98
2019-02-11T01:02:58.083Z,93907.65
2019-02-11T01:06:05.594Z,93913.52
2019-02-11T01:09:13.013Z,93925.94
2019-02-11T01:12:20.215Z,93930.70
2019-02-11T01:15:27.384Z,93924.37
2019-02-11T01:18:34.896Z,93944.69
2019-02-11T01:21:42.062Z,93938.02
2019-02-11T01:24:49.571Z,93929.16
2019-02-11T01:27:57.070Z,93934.97
2019-02-11T01:31:04.568Z,93950.47
2019-02-11T01:34:11.842Z,93936.42
2019-02-11T01:37:19.352Z,93955.42
2019-02-11T01:40:27.291Z,93947.45
2019-02-11T01:43:36.109Z,93940.44
2019-02-11T01:46:43.524Z,93951.77
2019-02-11T01:49:50.690Z,93958.86
2019-02-11T01:52:58.273Z,93957.55
2019-02-11T01:59:20.675Z,93952.84
2019-02-11T02:02:28.267Z,93962.94
2019-02-11T02:05:35.546Z,93959.09
2019-02-11T02:08:42.706Z,93967.39
2019-02-11T02:11:50.216Z,93952.45
2019-02-11T02:14:57.394Z,93968.31
2019-02-11T02:18:04.592Z,93963.97
2019-02-11T02:21:11.927Z,93970.04
2019-02-11T02:24:19.095Z,93983.93
2019-02-11T02:27:26.602Z,93968.64
2019-02-11T02:30:33.892Z,93977.39
2019-02-11T02:33:41.072Z,93978.02
2019-02-11T02:36:48.562Z,93992.36
2019-02-11T02:39:56.086Z,93984.09
2019-02-11T02:43:03.296Z,94004.19
2019-02-11T02:46:10.653Z,93990.99
2019-02-11T02:49:18.682Z,94002.22
2019-02-11T02:52:26.302Z,94007.32
2019-02-11T02:55:33.606Z,94011.49
2019-02-11T02:58:41.360Z,94018.28
2019-02-11T03:01:48.629Z,94013.13
2019-02-11T03:04:56.459Z,94020.85
2019-02-11T03:08:03.824Z,94023.13
2019-02-11T03:11:11.357Z,94025.05
2019-02-11T03:14:19.267Z,94019.92
2019-02-11T03:17:26.467Z,94023.16
2019-02-11T03:20:34.141Z,94024.75
2019-02-11T03:23:41.643Z,94022.95
2019-02-11T03:26:49.067Z,94029.23
2019-02-11T03:29:56.535Z,94033.89
2019-02-11T03:33:04.636Z,94048.06
2019-02-11T03:36:12.132Z,94058.69
2019-02-11T03:39:19.727Z,94065.94
2019-02-11T03:42:27.243Z,94077.73
2019-02-11T03:45:34.739Z,94090.97
2019-02-11T03:48:42.734Z,94105.69
2019-02-11T03:51:50.346Z,94114.78
2019-02-11T03:54:57.970Z,94126.95
2019-02-11T03:58:05.384Z,94120.06
2019-02-11T04:01:12.923Z,94135.95
2019-02-11T04:04:20.092Z,94144.30
2019-02-11T04:07:27.612Z,94145.66
2019-02-11T04:10:35.345Z,94145.83
2019-02-11T04:13:43.014Z,94147.73
2019-02-11T04:16:50.202Z,94135.95
2019-02-11T04:19:58.002Z,94134.18
2019-02-11T04:23:05.697Z,94134.28
2019-02-11T04:26:12.991Z,94138.80
2019-02-11T04:29:20.245Z,94152.19
2019-02-11T04:32:27.637Z,94144.28
2019-02-11T04:35:35.171Z,94166.64
2019-02-11T04:38:42.996Z,94164.55
2019-02-11T04:41:50.185Z,94178.50
2019-02-11T04:44:57.440Z,94195.00
2019-02-11T04:48:04.820Z,94207.08
2019-02-11T04:51:12.165Z,94218.05
2019-02-11T04:54:19.947Z,94211.05
2019-02-11T04:57:27.156Z,94220.45
2019-02-11T05:00:34.828Z,94202.98
2019-02-11T05:03:42.818Z,94209.33
2019-02-11T05:06:50.251Z,94213.25
2019-02-11T05:09:58.074Z,94223.48
2019-02-11T05:13:05.259Z,94230.94
2019-02-11T05:16:12.984Z,94243.67
2019-02-11T05:19:20.144Z,94237.33
2019-02-11T05:22:27.426Z,94238.48
2019-02-11T05:25:34.887Z,94232.38
2019-02-11T05:28:42.301Z,94239.63
2019-02-11T05:31:49.756Z,94243.88
2019-02-11T05:34:57.613Z,94226.68
2019-02-11T05:38:04.999Z,94241.41
2019-02-11T05:41:12.159Z,94252.23
2019-02-11T05:44:19.888Z,94251.29
2019-02-11T05:47:27.092Z,94244.37
2019-02-11T05:50:34.282Z,94267.38
2019-02-11T05:53:41.605Z,94262.70
2019-02-11T05:56:50.302Z,94278.71
2019-02-11T06:00:14.935Z,94285.13
2019-02-11T06:03:22.107Z,94291.58
2019-02-11T06:06:29.377Z,94280.94
2019-02-11T06:09:36.652Z,94289.25
2019-02-11T06:12:43.943Z,94294.70
2019-02-11T06:15:51.456Z,94294.59
2019-02-11T06:18:58.621Z,94314.08
2019-02-11T06:22:05.792Z,94315.77
2019-02-11T06:25:13.307Z,94324.70
2019-02-11T06:28:20.514Z,94339.23
2019-02-11T06:31:27.832Z,94344.19
2019-02-11T06:34:35.040Z,94341.41
2019-02-11T06:37:42.466Z,94346.11
2019-02-11T06:40:50.063Z,94345.27
2019-02-11T06:43:57.472Z,94346.39
2019-02-11T06:47:04.845Z,94358.47
2019-02-11T06:50:12.740Z,94368.98
2019-02-11T06:53:20.124Z,94377.67
2019-02-11T06:56:31.896Z,94396.48
2019-02-11T06:59:39.131Z,94403.15
2019-02-11T07:02:46.433Z,94412.72
2019-02-11T07:05:53.724Z,94420.20
2019-02-11T07:09:01.316Z,94431.39
2019-02-11T07:12:08.908Z,94439.77
2019-02-11T07:15:21.479Z,94458.64
2019-02-11T07:18:25.971Z,94464.03
2019-02-11T07:21:33.169Z,94474.26
2019-02-11T07:24:40.804Z,94485.67
2019-02-11T07:27:48.132Z,94493.25
2019-02-11T07:30:55.331Z,94493.58
2019-02-11T07:34:02.647Z,94499.08
2019-02-11T07:37:09.862Z,94504.23
2019-02-11T07:40:17.622Z,94511.91
2019-02-11T07:43:31.368Z,94515.81
2019-02-11T07:46:42.220Z,94525.48
2019-02-11T07:49:49.726Z,94528.31
2019-02-11T07:52:57.448Z,94539.62
2019-02-11T07:56:05.175Z,94543.49
2019-02-11T07:59:12.847Z,94545.13
2019-02-11T08:02:20.611Z,94556.09
2019-02-11T08:05:27.889Z,94555.61
2019-02-11T08:08:35.617Z,94560.56
2019-02-11T08:11:43.430Z,94572.40
2019-02-11T08:14:50.917Z,94569.20
2019-02-11T08:17:58.259Z,94579.67
2019-02-11T08:21:05.956Z,94581.55
2019-02-11T08:24:13.568Z,94590.38
2019-02-11T08:27:21.106Z,94589.52
2019-02-11T08:30:28.625Z,94604.39
2019-02-11T08:33:36.312Z,94603.91
2019-02-11T08:36:44.007Z,94611.98
2019-02-11T08:39:51.313Z,94617.42
2019-02-11T08:42:58.608Z,94632.48
2019-02-11T08:46:06.538Z,94645.06
2019-02-11T08:49:14.911Z,94647.03
2019-02-11T08:52:23.986Z,94645.23
2019-02-11T08:55:31.537Z,94655.75
2019-02-11T08:58:38.873Z,94668.75
2019-02-11T09:01:46.446Z,94678.19
2019-02-11T09:04:54.135Z,94686.35
2019-02-11T09:08:01.833Z,94689.77
2019-02-11T09:11:09.635Z,94694.99
2019-02-11T09:14:17.259Z,94705.44
2019-02-11T09:17:24.941Z,94707.53
2019-02-11T09:20:32.720Z,94712.44
2019-02-11T09:23:39.890Z,94717.98
2019-02-11T09:26:47.525Z,94724.28
2019-02-11T09:29:55.054Z,94738.34
2019-02-11T09:33:02.527Z,94738.33
2019-02-11T09:36:10.127Z,94738.34
2019-02-11T09:39:17.715Z,94744.47
2019-02-11T09:42:24.981Z,94752.73
2019-02-11T09:45:32.476Z,94753.23
2019-02-11T09:48:39.886Z,94765.47
2019-02-11T09:51:48.093Z,94774.05
2019-02-11T09:54:55.615Z,94777.23
2019-02-11T09:58:03.412Z,94780.23
2019-02-11T10:01:11.275Z,94782.98
2019-02-11T10:04:18.857Z,94787.43
2019-02-11T10:07:26.306Z,94792.92
2019-02-11T10:10:34.008Z,94798.97
2019-02-11T10:13:41.753Z,94814.72
2019-02-11T10:16:49.430Z,94816.81
2019-02-11T10:19:56.856Z,94823.36
2019-02-11T10:23:04.164Z,94830.95
2019-02-11T10:26:11.595Z,94838.61
2019-02-11T10:29:18.849Z,94841.16
2019-02-11T10:32:26.367Z,94843.00
2019-02-11T10:35:41.876Z,94853.98
2019-02-11T10:38:43.411Z,94857.38
2019-02-11T10:41:51.019Z,94859.28
2019-02-11T10:44:58.318Z,94857.91
2019-02-11T10:48:05.994Z,94857.91
2019-02-11T10:51:13.611Z,94865.81
2019-02-11T10:54:21.014Z,94870.28
2019-02-11T10:57:28.565Z,94874.50
2019-02-11T11:00:37.590Z,94883.34
2019-02-11T11:03:44.865Z,94878.38
2019-02-11T11:06:52.547Z,94886.17
2019-02-11T11:10:00.530Z,94897.89
2019-02-11T11:13:07.814Z,94901.09
2019-02-11T11:16:15.303Z,94911.30
2019-02-11T11:19:23.036Z,94917.63
2019-02-11T11:22:30.310Z,94924.64
2019-02-11T11:25:37.691Z,94924.64
2019-02-11T11:28:45.421Z,94925.16
2019-02-11T11:31:52.723Z,94926.21
2019-02-11T11:34:59.900Z,94930.88
2019-02-11T11:38:07.580Z,94944.54
2019-02-11T11:41:15.083Z,94945.80
2019-02-11T11:44:22.578Z,94948.89
2019-02-11T11:47:30.084Z,94961.97
2019-02-11T11:50:37.357Z,94967.52
2019-02-11T11:53:45.019Z,94974.05
2019-02-11T11:56:52.742Z,94970.97
2019-02-11T12:00:00.689Z,94984.58
2019-02-11T12:03:08.412Z,94979.86
2019-02-11T12:06:16.190Z,94981.13
2019-02-11T12:09:23.660Z,94989.55
2019-02-11T12:12:31.181Z,94988.45
2019-02-11T12:15:38.994Z,94998.36
2019-02-11T12:18:46.270Z,95004.11
2019-02-11T12:21:53.506Z,95001.55
2019-02-11T12:25:00.954Z,95010.61
2019-02-11T12:28:08.388Z,95017.20
2019-02-11T12:31:16.766Z,95018.60
2019-02-11T12:34:23.938Z,95019.86
2019-02-11T12:37:31.616Z,95025.36
2019-02-11T12:40:39.271Z,95032.20
2019-02-11T12:43:46.535Z,95035.31
2019-02-11T12:46:53.746Z,95042.94
2019-02-11T12:50:01.117Z,95044.28
2019-02-11T12:53:08.286Z,95053.22
2019-02-11T12:56:15.934Z,95057.37
2019-02-11T12:59:23.307Z,95059.91
2019-02-11T13:02:30.580Z,95066.41
2019-02-11T13:05:44.913Z,95066.20
2019-02-11T13:08:47.105Z,95069.30
2019-02-11T13:11:54.402Z,95075.06
2019-02-11T13:15:02.090Z,95081.61
2019-02-11T13:18:09.785Z,95091.25
2019-02-11T13:21:17.527Z,95094.13
2019-02-11T13:24:25.231Z,95105.72
2019-02-11T13:27:32.356Z,95108.92
2019-02-11T13:30:39.640Z,95117.56
2019-02-11T13:33:46.942Z,95123.81
2019-02-11T13:36:54.808Z,95130.91
2019-02-11T13:40:02.190Z,95127.50
2019-02-11T13:43:09.799Z,95144.55
2019-02-11T13:46:17.103Z,95146.39
2019-02-11T13:49:24.763Z,95150.86
2019-02-11T13:52:32.296Z,95160.81
2019-02-11T13:58:52.012Z,95172.30
2019-02-11T14:01:58.429Z,95176.23
2019-02-11T14:05:06.417Z,95180.38
2019-02-11T14:08:13.961Z,95183.77
2019-02-11T14:11:22.329Z,95179.28
2019-02-11T14:14:30.051Z,95185.53
2019-02-11T14:17:37.791Z,95199.39
2019-02-11T14:20:49.664Z,95204.10
2019-02-11T14:23:54.922Z,95218.52
2019-02-11T14:27:02.312Z,95217.19
2019-02-11T14:30:10.761Z,95220.31
2019-02-11T14:33:18.854Z,95225.57
2019-02-11T14:36:26.280Z,95226.33
2019-02-11T14:39:33.787Z,95228.71
2019-02-11T14:42:41.633Z,95232.66
2019-02-11T14:45:49.308Z,95235.54
2019-02-11T14:48:57.067Z,95244.40
2019-02-11T14:52:05.059Z,95245.19
2019-02-11T14:55:12.690Z,95257.00
2019-02-11T14:58:20.473Z,95248.12
2019-02-11T15:01:28.003Z,95252.03
2019-02-11T15:04:35.794Z,95260.69
2019-02-11T15:07:43.834Z,95269.33
2019-02-11T15:10:51.698Z,95279.27
2019-02-11T15:13:59.406Z,95285.57
2019-02-11T15:17:07.237Z,95291.59
2019-02-11T15:20:15.097Z,95300.22
2019-02-11T15:23:22.683Z,95304.42
2019-02-11T15:26:30.265Z,95301.03
2019-02-11T15:29:38.848Z,95316.45
2019-02-11T15:32:46.987Z,95326.39
2019-02-11T15:35:54.409Z,95326.67
2019-02-11T15:39:04.258Z,95334.00
2019-02-11T15:42:11.841Z,95337.14
2019-02-11T15:45:19.203Z,95334.51
2019-02-11T15:48:26.818Z,95345.00
2019-02-11T15:51:34.256Z,95347.84
2019-02-11T15:54:41.726Z,95348.91
2019-02-11T15:57:49.065Z,95359.91
2019-02-11T16:00:56.563Z,95368.01
2019-02-11T16:04:04.179Z,95378.73
2019-02-11T16:07:11.616Z,95376.13
2019-02-11T16:10:21.923Z,95392.08
2019-02-11T16:13:29.533Z,95397.86
2019-02-11T16:16:36.897Z,95396.28
2019-02-11T16:19:45.379Z,95400.46
2019-02-11T16:22:52.858Z,95407.01
2019-02-11T16:26:00.267Z,95408.56
2019-02-11T16:29:08.008Z,95416.94
2019-02-11T16:32:15.729Z,95427.64
2019-02-11T16:35:23.199Z,95439.39
2019-02-11T16:38:30.786Z,95445.94
2019-02-11T16:41:38.463Z,95445.70
2019-02-11T16:44:46.160Z,95442.30
2019-02-11T16:47:53.765Z,95449.33
2019-02-11T16:51:01.633Z,95447.03
2019-02-11T16:54:09.168Z,95454.86
2019-02-11T16:57:16.407Z,95455.40
2019-02-11T17:00:23.624Z,95460.11
2019-02-11T17:03:31.152Z,95465.59
2019-02-11T17:06:39.259Z,95461.94
2019-02-11T17:09:46.949Z,95446.98
2019-02-11T17:12:54.308Z,95466.86
2019-02-11T17:16:02.018Z,95473.43
2019-02-11T17:19:09.816Z,95481.28
2019-02-11T17:22:17.364Z,95489.39
2019-02-11T17:25:25.471Z,95498.29
2019-02-11T17:28:33.512Z,95506.41
2019-02-11T17:31:41.064Z,95509.54
2019-02-11T17:34:48.608Z,95513.95
2019-02-11T17:37:56.389Z,95512.65
2019-02-11T17:41:03.874Z,95523.91
2019-02-11T17:44:11.974Z,95532.02
2019-02-11T17:47:19.390Z,95533.34
2019-02-11T17:50:27.611Z,95531.79
2019-02-11T17:53:35.221Z,95532.55
2019-02-11T17:56:42.864Z,95532.04
2019-02-11T17:59:50.525Z,95528.66
2019-02-11T18:02:58.163Z,95532.88
2019-02-11T18:06:05.635Z,95533.61
2019-02-11T18:09:13.370Z,95544.91
2019-02-11T18:12:21.412Z,95550.39
2019-02-11T18:15:29.063Z,95551.16
2019-02-11T18:18:36.564Z,95554.55
2019-02-11T18:21:44.692Z,95560.05
2019-02-11T18:24:52.532Z,95569.77
2019-02-11T18:28:00.361Z,95554.56
2019-02-11T18:31:08.511Z,95562.67
2019-02-11T18:34:16.244Z,95563.94
2019-02-11T18:37:23.997Z,95568.89
2019-02-11T18:40:31.439Z,95574.10
2019-02-11T18:43:39.110Z,95569.13
2019-02-11T18:46:47.223Z,95569.41
2019-02-11T18:49:54.843Z,95569.70
2019-02-11T18:53:02.620Z,95571.73
2019-02-11T18:56:10.337Z,95571.72
2019-02-11T18:59:24.436Z,95575.44
2019-02-11T19:02:28.620Z,95593.20
2019-02-11T19:05:36.895Z,95592.69
2019-02-11T19:08:44.279Z,95594.31
2019-02-11T19:11:56.186Z,95591.83
2019-02-11T19:15:04.875Z,95600.06
2019-02-11T19:18:12.664Z,95603.70
2019-02-11T19:21:20.063Z,95604.23
2019-02-11T19:24:27.726Z,95616.62
2019-02-11T19:27:35.814Z,95616.03
2019-02-11T19:30:43.375Z,95619.95
2019-02-11T19:33:50.879Z,95627.30
2019-02-11T19:36:58.314Z,95636.97
2019-02-11T19:40:08.685Z,95642.72
2019-02-11T19:43:16.700Z,95640.06
2019-02-11T19:46:24.037Z,95644.25
2019-02-11T19:49:31.915Z,95650.80
2019-02-11T19:52:39.367Z,95658.91
2019-02-11T19:55:47.281Z,95657.05
2019-02-11T19:58:54.890Z,95666.50
2019-02-11T20:02:03.381Z,95658.86
2019-02-11T20:05:11.133Z,95657.29
2019-02-11T20:08:18.480Z,95664.39
2019-02-11T20:11:26.471Z,95670.42
2019-02-11T20:14:35.016Z,95661.76
2019-02-11T20:17:42.941Z,95676.36
2019-02-11T20:20:50.579Z,95682.88
2019-02-11T20:23:58.308Z,95696.02
2019-02-11T20:27:05.956Z,95699.39
2019-02-11T20:30:16.490Z,95699.80
2019-02-11T20:33:24.447Z,95700.61
2019-02-11T20:36:31.940Z,95716.42
2019-02-11T20:39:39.460Z,95722.69
2019-02-11T20:42:47.267Z,95720.31
2019-02-11T20:45:54.964Z,95729.20
2019-02-11T20:49:02.743Z,95727.28
2019-02-11T20:52:10.390Z,95734.48
2019-02-11T20:55:17.975Z,95738.44
2019-02-11T20:58:26.157Z,95736.61
2019-02-11T21:01:34.009Z,95739.23
2019-02-11T21:04:42.328Z,95741.03
2019-02-11T21:07:50.101Z,95740.78
2019-02-11T21:10:57.628Z,95743.64
2019-02-11T21:14:04.926Z,95744.16
2019-02-11T21:17:12.194Z,95750.64
2019-02-11T21:20:30.123Z,95749.70
2019-02-11T21:23:37.763Z,95758.06
2019-02-11T21:26:45.756Z,95767.03
2019-02-11T21:29:53.660Z,95770.93
2019-02-11T21:33:01.240Z,95767.00
2019-02-11T21:36:08.524Z,95768.31
2019-02-11T21:39:16.461Z,95775.16
2019-02-11T21:42:23.672Z,95810.73
2019-02-11T21:45:31.044Z,95830.84
2019-02-11T21:48:38.523Z,95823.22
2019-02-11T21:51:46.378Z,95828.81
2019-02-11T21:54:53.937Z,95839.38
2019-02-11T21:58:01.373Z,95842.22
2019-02-11T22:01:09.309Z,95835.66
2019-02-11T22:04:17.280Z,95838.27
2019-02-11T22:07:25.029Z,95846.57
2019-02-11T22:10:32.418Z,95847.93
2019-02-11T22:13:39.916Z,95848.58
2019-02-11T22:16:47.521Z,95846.27
2019-02-11T22:19:55.053Z,95845.14
2019-02-11T22:23:03.048Z,95846.87
2019-02-11T22:26:10.216Z,95853.02
2019-02-11T22:29:18.181Z,95843.77
2019-02-11T22:32:25.791Z,95830.89
2019-02-11T22:35:33.446Z,95839.47
2019-02-11T22:38:40.843Z,95847.71
2019-02-11T22:41:48.289Z,95858.86
2019-02-11T22:44:55.701Z,95856.08
2019-02-11T22:48:03.353Z,95863.39
2019-02-11T22:51:11.309Z,95873.41
2019-02-11T22:54:18.856Z,95872.01
2019-02-11T22:57:26.848Z,95869.84
2019-02-11T23:00:44.518Z,95869.15
2019-02-11T23:03:51.989Z,95874.05
2019-02-11T23:06:59.369Z,95879.20
2019-02-11T23:10:06.836Z,95872.73
2019-02-11T23:13:14.619Z,95877.33
2019-02-11T23:16:21.935Z,95879.09
2019-02-11T23:19:29.339Z,95885.36
2019-02-11T23:22:37.085Z,95884.77
2019-02-11T23:25:44.949Z,95893.79
2019-02-11T23:28:52.422Z,95900.19
2019-02-11T23:31:59.896Z,95902.03
2019-02-11T23:35:07.749Z,95904.56
2019-02-11T23:38:15.239Z,95903.95
2019-02-11T23:41:23.044Z,95905.56
2019-02-11T23:44:30.439Z,95908.70
2019-02-11T23:47:37.944Z,95906.73
2019-02-11T23:50:45.432Z,95909.86
2019-02-11T23:53:52.627Z,95903.27
2019-02-11T23:57:00.305Z,95909.41
